Joplin, Montana
Current Conditions -  °F | °C
As of 4:53 AM on Tuesday 27 Jan 2015 (Local Time) from KHVR Reporting Station
Clear Clear  
Wind Chill: 36°   Ceiling: Unl
Heat Index: 43°   Visibility: 10mi
Dew Point: 31°   Wind: 15mph
Humidity: 62%   Direction: 220°SW
Pressure: 29.84"   Gusts: NA
Location:  48.56°N, 110.78°W
Report Text: KHVR 271153Z AUTO 22013KT 10SM CLR 06/M01 A2984 RMK AO2 SLP114 T00611006 10083 20033 50005
Loading
Personal Weather Stations






























Interactive Weather Map New forecast layout! Learn more

10-Day Weather Forecast

Advertisements
Track Severe Weather on mobile